Mount Zion, GA (30150)

12:04 PM EST on February 10, 2016 (GMT -0500)
West Georgia Regional-Gray | | Change Station
CLOSE
Current Station
Airport
Location: Carrollton,
Elevation: 1161 ft
Nearby Weather Stations
Active Advisory: Special Statement

Elev 1161 ft 33.63 °N, 85.15 °W | Updated 9 minutes ago

Clear
Clear
32 °F
Feels Like 22 °F
N
13
Wind Variable Wind from West
Gusts 20 mph

Today
High -- | Low -- °F
--% Chance of Precip.
Yesterday
High -- | Low -- °F
Precip. -- in
Pressure 30.18 in
Visibility 10.0 miles
Clouds Clear
Windchill 22 °F
Dew Point 12 °F
Humidity 44%
Rainfall 0.00 in
Snow Depth Not available.
7:30 AM 6:20 PM
Waxing Crescent, 6% visible
METAR KCTJ 101655Z AUTO 28011G17KT 240V330 10SM CLR 00/M11 A3018 RMK AO2 T10031113
Pressure 30.18 in
Visibility 10.0 miles
Clouds Clear
Windchill 22 °F
Dew Point 12 °F
Humidity 44%
Rainfall 0.00 in
Snow Depth Not available.
7:30 AM 6:20 PM
Waxing Crescent, 6% visible
METAR KCTJ 101655Z AUTO 28011G17KT 240V330 10SM CLR 00/M11 A3018 RMK AO2 T10031113

10-Day Weather Forecast

Almanac

Astronomy

Feb. 10, 2016 Rise Set
Actual Time
Civil Twilight
Nautical Twilight
Astronomical Twilight
Moon
Length of Visible Light
Length of Day
Tomorrow will be .
, % of the Moon is Illuminated

Today's Extremes

State Highs State Lows

Community

WunderPhotos

Upload Photos

1,891,892 photos uploaded!

WunderBlog® & News

Nearby

Air Quality

  Air Quality AQ Index Pollutant
Not available.

Snow Depth

Station Depth Elevation

Earthquake Activity

City Distance Mag. Time & Date
Minimum magnitude displayed is 2.5.

Coastal Water Temperatures

Place Temperature

Stations

Nearby Weather Stations

Station Location Temp. Windchill Dew Point Humidity Wind Precip. Elev Updated Type
                   

Watches & Warnings

Special Statement
Issued: 6:44 AM EST Feb. 10, 2016 – National Weather Service

... Patchy black ice possible along the Interstate 20 corridor...

Patchy black ice is possible mainly along the Interstate 20
corridor this morning. Secondary roads... bridges and overpasses
will be most prone to seeing any black ice. Motorists are urged
to use extreme caution during the morning commute.

Temperatures will rise above freezing by the early afternoon.



644 am EST Wed Feb 10 2016

... Patchy black ice possible along the Interstate 20 corridor...

Patchy black ice is possible mainly along the Interstate 20
corridor this morning. Secondary roads... bridges and overpasses
will be most prone to seeing any black ice. Motorists are urged
to use extreme caution during the morning commute.

Temperatures will rise above freezing by the early afternoon.